sensor_id;sensor_type;location;lat;lon;timestamp;P1;durP1;ratioP1;P2;durP2;ratioP2
5199;SDS011;2619;47.868;11.892;2022-09-14T00:01:33;5.30;;;3.10;;
5199;SDS011;2619;47.868;11.892;2022-09-14T00:04:02;6.07;;;3.60;;
5199;SDS011;2619;47.868;11.892;2022-09-14T00:06:30;5.10;;;3.40;;
5199;SDS011;2619;47.868;11.892;2022-09-14T00:08:56;4.33;;;3.23;;
5199;SDS011;2619;47.868;11.892;2022-09-14T00:11:25;5.50;;;3.77;;
5199;SDS011;2619;47.868;11.892;2022-09-14T00:13:53;6.20;;;3.10;;
5199;SDS011;2619;47.868;11.892;2022-09-14T00:16:24;3.67;;;3.37;;
5199;SDS011;2619;47.868;11.892;2022-09-14T00:18:56;6.67;;;3.67;;
5199;SDS011;2619;47.868;11.892;2022-09-14T00:21:30;3.30;;;2.80;;
5199;SDS011;2619;47.868;11.892;2022-09-14T00:24:00;4.30;;;3.03;;
5199;SDS011;2619;47.868;11.892;2022-09-14T00:26:27;4.73;;;3.13;;
5199;SDS011;2619;47.868;11.892;2022-09-14T00:28:54;6.93;;;3.60;;
5199;SDS011;2619;47.868;11.892;2022-09-14T00:31:21;4.57;;;3.10;;
5199;SDS011;2619;47.868;11.892;2022-09-14T00:33:48;4.87;;;3.20;;
5199;SDS011;2619;47.868;11.892;2022-09-14T00:36:20;4.57;;;3.23;;
5199;SDS011;2619;47.868;11.892;2022-09-14T00:38:49;4.37;;;3.30;;
5199;SDS011;2619;47.868;11.892;2022-09-14T00:41:18;4.40;;;3.53;;
5199;SDS011;2619;47.868;11.892;2022-09-14T00:43:52;4.37;;;3.00;;
5199;SDS011;2619;47.868;11.892;2022-09-14T00:46:20;5.37;;;3.13;;
5199;SDS011;2619;47.868;11.892;2022-09-14T00:48:46;7.40;;;3.20;;
5199;SDS011;2619;47.868;11.892;2022-09-14T00:51:12;3.90;;;2.80;;
5199;SDS011;2619;47.868;11.892;2022-09-14T00:53:39;3.67;;;3.23;;
5199;SDS011;2619;47.868;11.892;2022-09-14T00:56:05;3.23;;;2.73;;
5199;SDS011;2619;47.868;11.892;2022-09-14T00:58:31;3.57;;;2.90;;
5199;SDS011;2619;47.868;11.892;2022-09-14T01:00:56;4.00;;;2.73;;
5199;SDS011;2619;47.868;11.892;2022-09-14T01:03:22;4.03;;;2.77;;
5199;SDS011;2619;47.868;11.892;2022-09-14T01:11:35;2.60;;;2.23;;
5199;SDS011;2619;47.868;11.892;2022-09-14T01:14:24;4.60;;;3.00;;
5199;SDS011;2619;47.868;11.892;2022-09-14T01:19:41;6.43;;;2.47;;
5199;SDS011;2619;47.868;11.892;2022-09-14T01:23:08;3.83;;;2.50;;
5199;SDS011;2619;47.868;11.892;2022-09-14T01:27:53;8.20;;;2.80;;
5199;SDS011;2619;47.868;11.892;2022-09-14T01:30:20;2.80;;;2.20;;
5199;SDS011;2619;47.868;11.892;2022-09-14T01:35:41;5.67;;;2.20;;
5199;SDS011;2619;47.868;11.892;2022-09-14T01:40:46;2.80;;;2.40;;
5199;SDS011;2619;47.868;11.892;2022-09-14T01:43:30;4.00;;;2.60;;
5199;SDS011;2619;47.868;11.892;2022-09-14T01:46:09;3.90;;;2.70;;
5199;SDS011;2619;47.868;11.892;2022-09-14T01:48:41;6.50;;;2.60;;
5199;SDS011;2619;47.868;11.892;2022-09-14T01:51:29;3.20;;;2.20;;
5199;SDS011;2619;47.868;11.892;2022-09-14T01:54:08;3.90;;;2.50;;
5199;SDS011;2619;47.868;11.892;2022-09-14T01:56:41;3.53;;;2.17;;
5199;SDS011;2619;47.868;11.892;2022-09-14T01:59:14;4.87;;;2.50;;
5199;SDS011;2619;47.868;11.892;2022-09-14T02:04:16;4.33;;;2.33;;
5199;SDS011;2619;47.868;11.892;2022-09-14T02:07:05;4.30;;;2.50;;
5199;SDS011;2619;47.868;11.892;2022-09-14T02:09:31;4.07;;;2.30;;
5199;SDS011;2619;47.868;11.892;2022-09-14T02:11:57;3.00;;;1.93;;
5199;SDS011;2619;47.868;11.892;2022-09-14T02:14:24;3.60;;;2.40;;
5199;SDS011;2619;47.868;11.892;2022-09-14T02:16:50;4.10;;;2.00;;
5199;SDS011;2619;47.868;11.892;2022-09-14T02:19:16;3.50;;;2.53;;
5199;SDS011;2619;47.868;11.892;2022-09-14T02:21:42;6.57;;;2.67;;
5199;SDS011;2619;47.868;11.892;2022-09-14T02:24:09;3.80;;;1.90;;
5199;SDS011;2619;47.868;11.892;2022-09-14T02:26:35;4.27;;;2.43;;
5199;SDS011;2619;47.868;11.892;2022-09-14T02:29:02;3.53;;;2.40;;
5199;SDS011;2619;47.868;11.892;2022-09-14T02:34:18;3.70;;;2.40;;
5199;SDS011;2619;47.868;11.892;2022-09-14T02:37:09;3.60;;;2.50;;
5199;SDS011;2619;47.868;11.892;2022-09-14T02:39:47;2.50;;;2.10;;
5199;SDS011;2619;47.868;11.892;2022-09-14T02:42:32;4.00;;;1.97;;
5199;SDS011;2619;47.868;11.892;2022-09-14T02:47:50;4.67;;;2.80;;
5199;SDS011;2619;47.868;11.892;2022-09-14T02:55:40;2.60;;;2.20;;
5199;SDS011;2619;47.868;11.892;2022-09-14T02:58:13;3.57;;;2.30;;
5199;SDS011;2619;47.868;11.892;2022-09-14T03:00:41;3.20;;;2.00;;
5199;SDS011;2619;47.868;11.892;2022-09-14T03:03:11;2.90;;;2.27;;
5199;SDS011;2619;47.868;11.892;2022-09-14T03:05:39;4.03;;;2.10;;
5199;SDS011;2619;47.868;11.892;2022-09-14T03:08:05;3.40;;;2.70;;
5199;SDS011;2619;47.868;11.892;2022-09-14T03:10:31;3.93;;;2.43;;
5199;SDS011;2619;47.868;11.892;2022-09-14T03:12:58;4.70;;;2.60;;
5199;SDS011;2619;47.868;11.892;2022-09-14T03:15:24;4.00;;;2.97;;
5199;SDS011;2619;47.868;11.892;2022-09-14T03:17:51;4.30;;;2.47;;
5199;SDS011;2619;47.868;11.892;2022-09-14T03:20:18;2.83;;;2.37;;
5199;SDS011;2619;47.868;11.892;2022-09-14T03:22:46;5.03;;;2.50;;
5199;SDS011;2619;47.868;11.892;2022-09-14T03:25:12;3.97;;;2.40;;
5199;SDS011;2619;47.868;11.892;2022-09-14T03:27:38;5.00;;;2.50;;
5199;SDS011;2619;47.868;11.892;2022-09-14T03:30:04;5.57;;;2.50;;
5199;SDS011;2619;47.868;11.892;2022-09-14T03:32:30;4.63;;;3.03;;
5199;SDS011;2619;47.868;11.892;2022-09-14T03:34:56;4.80;;;2.73;;
5199;SDS011;2619;47.868;11.892;2022-09-14T03:37:23;6.03;;;2.50;;
5199;SDS011;2619;47.868;11.892;2022-09-14T03:39:49;3.83;;;2.60;;
5199;SDS011;2619;47.868;11.892;2022-09-14T03:42:15;5.80;;;2.07;;
5199;SDS011;2619;47.868;11.892;2022-09-14T03:44:40;4.20;;;2.63;;
5199;SDS011;2619;47.868;11.892;2022-09-14T03:47:06;4.23;;;2.10;;
5199;SDS011;2619;47.868;11.892;2022-09-14T03:49:32;4.90;;;2.87;;
5199;SDS011;2619;47.868;11.892;2022-09-14T03:51:58;2.87;;;2.40;;
5199;SDS011;2619;47.868;11.892;2022-09-14T03:54:24;3.40;;;2.17;;
5199;SDS011;2619;47.868;11.892;2022-09-14T03:56:51;2.80;;;2.53;;
5199;SDS011;2619;47.868;11.892;2022-09-14T03:59:17;3.70;;;2.20;;
5199;SDS011;2619;47.868;11.892;2022-09-14T04:01:44;3.50;;;2.33;;
5199;SDS011;2619;47.868;11.892;2022-09-14T04:04:09;3.03;;;2.57;;
5199;SDS011;2619;47.868;11.892;2022-09-14T04:06:35;4.20;;;2.57;;
5199;SDS011;2619;47.868;11.892;2022-09-14T04:09:01;3.87;;;2.47;;
5199;SDS011;2619;47.868;11.892;2022-09-14T04:11:26;4.30;;;2.50;;
5199;SDS011;2619;47.868;11.892;2022-09-14T04:13:53;3.27;;;2.40;;
5199;SDS011;2619;47.868;11.892;2022-09-14T04:16:19;3.87;;;2.37;;
5199;SDS011;2619;47.868;11.892;2022-09-14T04:18:45;4.40;;;2.53;;
5199;SDS011;2619;47.868;11.892;2022-09-14T04:21:15;4.47;;;2.13;;
5199;SDS011;2619;47.868;11.892;2022-09-14T04:23:43;2.93;;;2.57;;
5199;SDS011;2619;47.868;11.892;2022-09-14T04:26:12;3.70;;;2.43;;
5199;SDS011;2619;47.868;11.892;2022-09-14T04:28:41;4.20;;;2.47;;
5199;SDS011;2619;47.868;11.892;2022-09-14T04:31:07;3.20;;;2.50;;
5199;SDS011;2619;47.868;11.892;2022-09-14T04:33:34;6.27;;;2.90;;
5199;SDS011;2619;47.868;11.892;2022-09-14T04:36:04;3.90;;;2.30;;
5199;SDS011;2619;47.868;11.892;2022-09-14T04:38:32;2.97;;;2.40;;
5199;SDS011;2619;47.868;11.892;2022-09-14T04:40:58;5.10;;;2.47;;
5199;SDS011;2619;47.868;11.892;2022-09-14T04:43:25;5.17;;;2.50;;
5199;SDS011;2619;47.868;11.892;2022-09-14T04:45:51;2.87;;;2.40;;
5199;SDS011;2619;47.868;11.892;2022-09-14T04:48:17;3.50;;;2.63;;
5199;SDS011;2619;47.868;11.892;2022-09-14T04:50:43;5.57;;;3.10;;
5199;SDS011;2619;47.868;11.892;2022-09-14T04:53:09;3.80;;;3.40;;
5199;SDS011;2619;47.868;11.892;2022-09-14T04:55:35;5.67;;;2.67;;
5199;SDS011;2619;47.868;11.892;2022-09-14T04:58:01;3.87;;;2.73;;
5199;SDS011;2619;47.868;11.892;2022-09-14T05:00:27;4.47;;;2.77;;
5199;SDS011;2619;47.868;11.892;2022-09-14T05:02:53;3.83;;;2.80;;
5199;SDS011;2619;47.868;11.892;2022-09-14T05:05:19;5.27;;;2.60;;
5199;SDS011;2619;47.868;11.892;2022-09-14T05:07:44;4.27;;;2.50;;
5199;SDS011;2619;47.868;11.892;2022-09-14T05:10:10;4.67;;;2.90;;
5199;SDS011;2619;47.868;11.892;2022-09-14T05:12:36;8.83;;;4.20;;
5199;SDS011;2619;47.868;11.892;2022-09-14T05:15:01;6.10;;;3.00;;
5199;SDS011;2619;47.868;11.892;2022-09-14T05:17:27;4.27;;;2.70;;
5199;SDS011;2619;47.868;11.892;2022-09-14T05:19:52;5.13;;;2.47;;
5199;SDS011;2619;47.868;11.892;2022-09-14T05:22:18;3.87;;;3.23;;
5199;SDS011;2619;47.868;11.892;2022-09-14T05:24:45;3.63;;;3.10;;
5199;SDS011;2619;47.868;11.892;2022-09-14T05:27:10;4.40;;;2.93;;
5199;SDS011;2619;47.868;11.892;2022-09-14T05:29:36;3.47;;;2.93;;
5199;SDS011;2619;47.868;11.892;2022-09-14T05:32:04;4.07;;;3.23;;
5199;SDS011;2619;47.868;11.892;2022-09-14T05:34:30;4.20;;;3.50;;
5199;SDS011;2619;47.868;11.892;2022-09-14T05:36:56;3.30;;;3.00;;
5199;SDS011;2619;47.868;11.892;2022-09-14T05:39:22;4.83;;;3.67;;
5199;SDS011;2619;47.868;11.892;2022-09-14T05:41:49;4.93;;;3.60;;
5199;SDS011;2619;47.868;11.892;2022-09-14T05:44:14;5.30;;;3.67;;
5199;SDS011;2619;47.868;11.892;2022-09-14T05:46:40;4.57;;;3.00;;
5199;SDS011;2619;47.868;11.892;2022-09-14T05:49:05;4.57;;;3.30;;
5199;SDS011;2619;47.868;11.892;2022-09-14T05:51:31;5.67;;;3.17;;
5199;SDS011;2619;47.868;11.892;2022-09-14T05:53:57;4.50;;;3.23;;
5199;SDS011;2619;47.868;11.892;2022-09-14T05:56:24;5.03;;;3.20;;
5199;SDS011;2619;47.868;11.892;2022-09-14T05:58:51;5.63;;;3.03;;
5199;SDS011;2619;47.868;11.892;2022-09-14T06:01:21;3.90;;;3.37;;
5199;SDS011;2619;47.868;11.892;2022-09-14T06:03:51;6.77;;;2.67;;
5199;SDS011;2619;47.868;11.892;2022-09-14T06:06:18;4.43;;;2.87;;
5199;SDS011;2619;47.868;11.892;2022-09-14T06:08:44;10.17;;;2.70;;
5199;SDS011;2619;47.868;11.892;2022-09-14T06:11:13;5.60;;;3.10;;
5199;SDS011;2619;47.868;11.892;2022-09-14T06:13:40;7.63;;;3.40;;
5199;SDS011;2619;47.868;11.892;2022-09-14T06:16:07;14.00;;;3.53;;
5199;SDS011;2619;47.868;11.892;2022-09-14T06:18:44;11.17;;;3.70;;
5199;SDS011;2619;47.868;11.892;2022-09-14T06:21:11;5.13;;;2.90;;
5199;SDS011;2619;47.868;11.892;2022-09-14T06:23:40;4.60;;;3.40;;
5199;SDS011;2619;47.868;11.892;2022-09-14T06:26:07;5.87;;;3.17;;
5199;SDS011;2619;47.868;11.892;2022-09-14T06:28:33;4.70;;;2.73;;
5199;SDS011;2619;47.868;11.892;2022-09-14T06:31:00;3.50;;;2.80;;
5199;SDS011;2619;47.868;11.892;2022-09-14T06:33:28;5.20;;;3.07;;
5199;SDS011;2619;47.868;11.892;2022-09-14T06:35:56;3.97;;;3.53;;
5199;SDS011;2619;47.868;11.892;2022-09-14T06:38:23;5.53;;;3.33;;
5199;SDS011;2619;47.868;11.892;2022-09-14T06:41:00;5.63;;;3.73;;
5199;SDS011;2619;47.868;11.892;2022-09-14T06:43:29;5.03;;;2.97;;
5199;SDS011;2619;47.868;11.892;2022-09-14T06:48:32;4.50;;;2.70;;
5199;SDS011;2619;47.868;11.892;2022-09-14T06:51:00;5.20;;;2.40;;
5199;SDS011;2619;47.868;11.892;2022-09-14T06:53:38;7.73;;;2.67;;
5199;SDS011;2619;47.868;11.892;2022-09-14T06:56:03;7.27;;;3.07;;
5199;SDS011;2619;47.868;11.892;2022-09-14T06:58:29;4.57;;;2.67;;
5199;SDS011;2619;47.868;11.892;2022-09-14T07:00:59;3.17;;;2.10;;
5199;SDS011;2619;47.868;11.892;2022-09-14T07:03:25;7.13;;;2.47;;
5199;SDS011;2619;47.868;11.892;2022-09-14T07:05:51;4.70;;;2.17;;
5199;SDS011;2619;47.868;11.892;2022-09-14T07:08:16;13.03;;;2.37;;
5199;SDS011;2619;47.868;11.892;2022-09-14T07:10:42;5.07;;;2.20;;
5199;SDS011;2619;47.868;11.892;2022-09-14T07:13:08;7.13;;;2.47;;
5199;SDS011;2619;47.868;11.892;2022-09-14T07:15:33;4.13;;;1.80;;
5199;SDS011;2619;47.868;11.892;2022-09-14T07:17:59;4.93;;;2.63;;
5199;SDS011;2619;47.868;11.892;2022-09-14T07:20:24;5.20;;;2.67;;
5199;SDS011;2619;47.868;11.892;2022-09-14T07:22:50;4.43;;;1.90;;
5199;SDS011;2619;47.868;11.892;2022-09-14T07:25:16;5.90;;;2.30;;
5199;SDS011;2619;47.868;11.892;2022-09-14T07:27:41;3.87;;;2.43;;
5199;SDS011;2619;47.868;11.892;2022-09-14T07:30:07;3.50;;;2.43;;
5199;SDS011;2619;47.868;11.892;2022-09-14T07:32:33;3.40;;;2.00;;
5199;SDS011;2619;47.868;11.892;2022-09-14T07:34:58;4.63;;;2.67;;
5199;SDS011;2619;47.868;11.892;2022-09-14T07:37:24;10.33;;;2.50;;
5199;SDS011;2619;47.868;11.892;2022-09-14T07:39:49;4.53;;;1.77;;
5199;SDS011;2619;47.868;11.892;2022-09-14T07:42:15;3.17;;;1.80;;
5199;SDS011;2619;47.868;11.892;2022-09-14T07:44:41;5.63;;;2.40;;
5199;SDS011;2619;47.868;11.892;2022-09-14T07:47:06;4.10;;;2.13;;
5199;SDS011;2619;47.868;11.892;2022-09-14T07:49:32;5.67;;;1.77;;
5199;SDS011;2619;47.868;11.892;2022-09-14T07:51:57;3.43;;;1.80;;
5199;SDS011;2619;47.868;11.892;2022-09-14T07:54:26;6.50;;;1.83;;
5199;SDS011;2619;47.868;11.892;2022-09-14T07:57:00;3.87;;;1.33;;
5199;SDS011;2619;47.868;11.892;2022-09-14T07:59:25;5.50;;;2.20;;
5199;SDS011;2619;47.868;11.892;2022-09-14T08:01:52;3.33;;;1.37;;
5199;SDS011;2619;47.868;11.892;2022-09-14T08:04:17;4.60;;;1.80;;
5199;SDS011;2619;47.868;11.892;2022-09-14T08:06:43;4.30;;;1.50;;
5199;SDS011;2619;47.868;11.892;2022-09-14T08:09:08;2.67;;;1.50;;
5199;SDS011;2619;47.868;11.892;2022-09-14T08:11:34;5.30;;;4.57;;
5199;SDS011;2619;47.868;11.892;2022-09-14T08:14:01;5.20;;;2.70;;
5199;SDS011;2619;47.868;11.892;2022-09-14T08:16:34;4.90;;;2.73;;
5199;SDS011;2619;47.868;11.892;2022-09-14T08:19:01;4.10;;;2.97;;
5199;SDS011;2619;47.868;11.892;2022-09-14T08:21:29;4.53;;;2.10;;
5199;SDS011;2619;47.868;11.892;2022-09-14T08:23:56;4.87;;;3.27;;
5199;SDS011;2619;47.868;11.892;2022-09-14T08:26:24;6.07;;;2.33;;
5199;SDS011;2619;47.868;11.892;2022-09-14T08:28:51;6.90;;;1.97;;
5199;SDS011;2619;47.868;11.892;2022-09-14T08:31:22;4.93;;;1.67;;
5199;SDS011;2619;47.868;11.892;2022-09-14T08:33:53;4.57;;;1.73;;
5199;SDS011;2619;47.868;11.892;2022-09-14T08:36:30;4.37;;;2.20;;
5199;SDS011;2619;47.868;11.892;2022-09-14T08:38:59;3.97;;;2.03;;
5199;SDS011;2619;47.868;11.892;2022-09-14T08:46:57;8.90;;;2.70;;
5199;SDS011;2619;47.868;11.892;2022-09-14T08:49:41;4.17;;;1.90;;
5199;SDS011;2619;47.868;11.892;2022-09-14T08:52:14;4.23;;;1.80;;
5199;SDS011;2619;47.868;11.892;2022-09-14T08:54:49;4.73;;;2.00;;
5199;SDS011;2619;47.868;11.892;2022-09-14T08:57:20;6.37;;;1.80;;
5199;SDS011;2619;47.868;11.892;2022-09-14T09:05:26;4.43;;;2.30;;
5199;SDS011;2619;47.868;11.892;2022-09-14T09:08:18;2.97;;;1.70;;
5199;SDS011;2619;47.868;11.892;2022-09-14T09:11:02;3.17;;;1.63;;
5199;SDS011;2619;47.868;11.892;2022-09-14T09:13:32;3.57;;;2.03;;
5199;SDS011;2619;47.868;11.892;2022-09-14T09:16:02;4.00;;;2.03;;
5199;SDS011;2619;47.868;11.892;2022-09-14T09:18:46;5.07;;;2.10;;
5199;SDS011;2619;47.868;11.892;2022-09-14T09:21:17;5.73;;;2.17;;
5199;SDS011;2619;47.868;11.892;2022-09-14T09:23:46;4.20;;;1.80;;
5199;SDS011;2619;47.868;11.892;2022-09-14T09:28:59;7.10;;;2.40;;
5199;SDS011;2619;47.868;11.892;2022-09-14T09:31:40;4.70;;;2.17;;
5199;SDS011;2619;47.868;11.892;2022-09-14T09:34:12;2.93;;;2.00;;
5199;SDS011;2619;47.868;11.892;2022-09-14T09:36:40;4.40;;;1.93;;
5199;SDS011;2619;47.868;11.892;2022-09-14T09:39:08;5.70;;;2.00;;
5199;SDS011;2619;47.868;11.892;2022-09-14T09:44:14;6.93;;;1.87;;
5199;SDS011;2619;47.868;11.892;2022-09-14T09:46:57;4.93;;;1.83;;
5199;SDS011;2619;47.868;11.892;2022-09-14T09:49:32;9.43;;;2.17;;
5199;SDS011;2619;47.868;11.892;2022-09-14T09:52:33;5.03;;;2.27;;
5199;SDS011;2619;47.868;11.892;2022-09-14T09:54:53;5.30;;;2.57;;
5199;SDS011;2619;47.868;11.892;2022-09-14T09:57:21;3.33;;;1.80;;
5199;SDS011;2619;47.868;11.892;2022-09-14T10:02:44;6.40;;;2.23;;
5199;SDS011;2619;47.868;11.892;2022-09-14T10:13:03;3.93;;;1.67;;
5199;SDS011;2619;47.868;11.892;2022-09-14T10:15:31;5.57;;;2.10;;
5199;SDS011;2619;47.868;11.892;2022-09-14T10:18:13;4.57;;;1.90;;
5199;SDS011;2619;47.868;11.892;2022-09-14T10:21:03;3.40;;;2.00;;
5199;SDS011;2619;47.868;11.892;2022-09-14T10:23:28;4.57;;;1.83;;
5199;SDS011;2619;47.868;11.892;2022-09-14T10:28:38;5.10;;;2.40;;
5199;SDS011;2619;47.868;11.892;2022-09-14T10:31:07;3.80;;;1.87;;
5199;SDS011;2619;47.868;11.892;2022-09-14T10:33:42;4.50;;;1.70;;
5199;SDS011;2619;47.868;11.892;2022-09-14T10:36:30;3.10;;;2.00;;
5199;SDS011;2619;47.868;11.892;2022-09-14T10:38:57;4.73;;;2.20;;
5199;SDS011;2619;47.868;11.892;2022-09-14T10:41:31;4.70;;;1.97;;
5199;SDS011;2619;47.868;11.892;2022-09-14T10:44:17;8.07;;;2.27;;
5199;SDS011;2619;47.868;11.892;2022-09-14T10:52:22;6.77;;;1.97;;
5199;SDS011;2619;47.868;11.892;2022-09-14T11:00:03;4.50;;;2.27;;
5199;SDS011;2619;47.868;11.892;2022-09-14T11:02:41;3.97;;;2.00;;
5199;SDS011;2619;47.868;11.892;2022-09-14T11:10:51;3.70;;;1.80;;
5199;SDS011;2619;47.868;11.892;2022-09-14T11:19:04;4.50;;;2.13;;
5199;SDS011;2619;47.868;11.892;2022-09-14T11:21:37;4.00;;;2.27;;
5199;SDS011;2619;47.868;11.892;2022-09-14T11:24:21;5.73;;;1.83;;
5199;SDS011;2619;47.868;11.892;2022-09-14T11:27:04;4.60;;;1.80;;
5199;SDS011;2619;47.868;11.892;2022-09-14T11:29:39;4.43;;;2.17;;
5199;SDS011;2619;47.868;11.892;2022-09-14T11:32:18;5.83;;;1.80;;
5199;SDS011;2619;47.868;11.892;2022-09-14T11:34:50;4.93;;;2.10;;
5199;SDS011;2619;47.868;11.892;2022-09-14T11:37:43;5.37;;;2.07;;
5199;SDS011;2619;47.868;11.892;2022-09-14T11:45:50;4.40;;;2.13;;
5199;SDS011;2619;47.868;11.892;2022-09-14T11:48:33;4.73;;;1.90;;
5199;SDS011;2619;47.868;11.892;2022-09-14T11:51:11;12.70;;;3.70;;
5199;SDS011;2619;47.868;11.892;2022-09-14T11:53:40;3.63;;;1.90;;
5199;SDS011;2619;47.868;11.892;2022-09-14T11:56:14;5.70;;;2.13;;
5199;SDS011;2619;47.868;11.892;2022-09-14T11:58:57;3.13;;;2.03;;
5199;SDS011;2619;47.868;11.892;2022-09-14T12:01:32;5.50;;;2.00;;
5199;SDS011;2619;47.868;11.892;2022-09-14T12:11:38;3.63;;;1.60;;
5199;SDS011;2619;47.868;11.892;2022-09-14T12:17:00;5.20;;;2.00;;
5199;SDS011;2619;47.868;11.892;2022-09-14T12:19:39;5.03;;;2.10;;
5199;SDS011;2619;47.868;11.892;2022-09-14T12:25:13;6.50;;;2.20;;
5199;SDS011;2619;47.868;11.892;2022-09-14T12:27:42;6.80;;;2.80;;
5199;SDS011;2619;47.868;11.892;2022-09-14T12:32:59;3.67;;;2.30;;
5199;SDS011;2619;47.868;11.892;2022-09-14T12:41:02;4.57;;;1.87;;
5199;SDS011;2619;47.868;11.892;2022-09-14T12:46:03;4.70;;;1.53;;
5199;SDS011;2619;47.868;11.892;2022-09-14T12:51:11;6.07;;;2.07;;
5199;SDS011;2619;47.868;11.892;2022-09-14T12:53:39;6.07;;;2.07;;
5199;SDS011;2619;47.868;11.892;2022-09-14T12:56:12;4.87;;;2.17;;
5199;SDS011;2619;47.868;11.892;2022-09-14T13:01:32;3.73;;;1.80;;
5199;SDS011;2619;47.868;11.892;2022-09-14T13:04:02;2.93;;;1.53;;
5199;SDS011;2619;47.868;11.892;2022-09-14T13:06:34;3.63;;;1.57;;
5199;SDS011;2619;47.868;11.892;2022-09-14T13:09:10;3.70;;;1.30;;
5199;SDS011;2619;47.868;11.892;2022-09-14T13:11:46;3.60;;;1.90;;
5199;SDS011;2619;47.868;11.892;2022-09-14T13:14:17;6.73;;;2.03;;
5199;SDS011;2619;47.868;11.892;2022-09-14T13:16:44;5.13;;;1.90;;
5199;SDS011;2619;47.868;11.892;2022-09-14T13:19:29;7.10;;;2.17;;
5199;SDS011;2619;47.868;11.892;2022-09-14T13:21:57;8.40;;;1.80;;
5199;SDS011;2619;47.868;11.892;2022-09-14T13:24:26;5.90;;;2.30;;
5199;SDS011;2619;47.868;11.892;2022-09-14T13:27:27;6.70;;;2.10;;
5199;SDS011;2619;47.868;11.892;2022-09-14T13:30:00;4.93;;;1.97;;
5199;SDS011;2619;47.868;11.892;2022-09-14T13:32:29;4.57;;;1.70;;
5199;SDS011;2619;47.868;11.892;2022-09-14T13:34:58;4.20;;;2.13;;
5199;SDS011;2619;47.868;11.892;2022-09-14T13:37:25;2.90;;;1.60;;
5199;SDS011;2619;47.868;11.892;2022-09-14T13:39:52;4.80;;;1.90;;
5199;SDS011;2619;47.868;11.892;2022-09-14T13:42:19;4.00;;;1.90;;
5199;SDS011;2619;47.868;11.892;2022-09-14T13:44:46;4.13;;;1.80;;
5199;SDS011;2619;47.868;11.892;2022-09-14T13:47:18;3.70;;;1.80;;
5199;SDS011;2619;47.868;11.892;2022-09-14T13:49:45;2.80;;;1.63;;
5199;SDS011;2619;47.868;11.892;2022-09-14T13:52:16;3.93;;;1.57;;
5199;SDS011;2619;47.868;11.892;2022-09-14T13:54:45;4.30;;;2.10;;
5199;SDS011;2619;47.868;11.892;2022-09-14T13:57:12;8.57;;;2.17;;
5199;SDS011;2619;47.868;11.892;2022-09-14T14:05:28;7.87;;;1.70;;
5199;SDS011;2619;47.868;11.892;2022-09-14T14:07:57;7.20;;;2.50;;
5199;SDS011;2619;47.868;11.892;2022-09-14T14:10:35;5.40;;;1.93;;
5199;SDS011;2619;47.868;11.892;2022-09-14T14:13:03;2.70;;;1.33;;
5199;SDS011;2619;47.868;11.892;2022-09-14T14:15:41;4.23;;;1.97;;
5199;SDS011;2619;47.868;11.892;2022-09-14T14:21:11;5.47;;;2.10;;
5199;SDS011;2619;47.868;11.892;2022-09-14T14:23:40;3.83;;;2.00;;
5199;SDS011;2619;47.868;11.892;2022-09-14T14:26:10;4.47;;;1.90;;
5199;SDS011;2619;47.868;11.892;2022-09-14T14:28:39;3.70;;;1.80;;
5199;SDS011;2619;47.868;11.892;2022-09-14T14:31:06;3.97;;;1.93;;
5199;SDS011;2619;47.868;11.892;2022-09-14T14:33:44;7.50;;;2.47;;
5199;SDS011;2619;47.868;11.892;2022-09-14T14:36:17;5.33;;;1.93;;
5199;SDS011;2619;47.868;11.892;2022-09-14T14:38:43;4.23;;;1.87;;
5199;SDS011;2619;47.868;11.892;2022-09-14T14:41:19;4.60;;;1.73;;
5199;SDS011;2619;47.868;11.892;2022-09-14T14:43:45;5.13;;;1.93;;
5199;SDS011;2619;47.868;11.892;2022-09-14T14:46:14;3.73;;;1.67;;
5199;SDS011;2619;47.868;11.892;2022-09-14T14:48:40;5.47;;;1.90;;
5199;SDS011;2619;47.868;11.892;2022-09-14T14:51:08;4.93;;;1.90;;
5199;SDS011;2619;47.868;11.892;2022-09-14T14:53:38;3.00;;;1.40;;
5199;SDS011;2619;47.868;11.892;2022-09-14T14:56:03;5.10;;;1.83;;
5199;SDS011;2619;47.868;11.892;2022-09-14T14:58:29;6.57;;;2.17;;
5199;SDS011;2619;47.868;11.892;2022-09-14T15:00:55;7.10;;;1.80;;
5199;SDS011;2619;47.868;11.892;2022-09-14T15:03:21;4.50;;;1.70;;
5199;SDS011;2619;47.868;11.892;2022-09-14T15:05:47;4.80;;;2.30;;
5199;SDS011;2619;47.868;11.892;2022-09-14T15:08:14;5.27;;;1.77;;
5199;SDS011;2619;47.868;11.892;2022-09-14T15:10:41;6.23;;;1.90;;
5199;SDS011;2619;47.868;11.892;2022-09-14T15:13:08;4.57;;;1.90;;
5199;SDS011;2619;47.868;11.892;2022-09-14T15:15:34;5.20;;;2.17;;
5199;SDS011;2619;47.868;11.892;2022-09-14T15:18:00;4.93;;;2.13;;
5199;SDS011;2619;47.868;11.892;2022-09-14T15:20:26;4.13;;;1.97;;
5199;SDS011;2619;47.868;11.892;2022-09-14T15:22:52;6.50;;;2.10;;
5199;SDS011;2619;47.868;11.892;2022-09-14T15:25:18;5.30;;;2.13;;
5199;SDS011;2619;47.868;11.892;2022-09-14T15:27:45;5.60;;;2.40;;
5199;SDS011;2619;47.868;11.892;2022-09-14T15:30:11;4.87;;;2.23;;
5199;SDS011;2619;47.868;11.892;2022-09-14T15:32:37;4.90;;;2.60;;
5199;SDS011;2619;47.868;11.892;2022-09-14T15:35:04;7.20;;;2.10;;
5199;SDS011;2619;47.868;11.892;2022-09-14T15:37:31;3.80;;;2.33;;
5199;SDS011;2619;47.868;11.892;2022-09-14T15:39:56;4.23;;;2.73;;
5199;SDS011;2619;47.868;11.892;2022-09-14T15:42:22;6.87;;;3.00;;
5199;SDS011;2619;47.868;11.892;2022-09-14T15:44:49;6.10;;;2.80;;
5199;SDS011;2619;47.868;11.892;2022-09-14T15:47:15;4.40;;;2.40;;
5199;SDS011;2619;47.868;11.892;2022-09-14T15:49:41;5.10;;;2.73;;
5199;SDS011;2619;47.868;11.892;2022-09-14T15:52:06;5.60;;;3.10;;
5199;SDS011;2619;47.868;11.892;2022-09-14T15:54:33;6.17;;;3.77;;
5199;SDS011;2619;47.868;11.892;2022-09-14T15:57:01;6.30;;;4.07;;
5199;SDS011;2619;47.868;11.892;2022-09-14T15:59:30;6.40;;;3.87;;
5199;SDS011;2619;47.868;11.892;2022-09-14T16:01:55;6.83;;;4.10;;
5199;SDS011;2619;47.868;11.892;2022-09-14T16:04:21;12.50;;;4.13;;
5199;SDS011;2619;47.868;11.892;2022-09-14T16:06:47;6.63;;;3.60;;
5199;SDS011;2619;47.868;11.892;2022-09-14T16:09:13;6.73;;;4.17;;
5199;SDS011;2619;47.868;11.892;2022-09-14T16:11:40;9.50;;;4.90;;
5199;SDS011;2619;47.868;11.892;2022-09-14T16:14:07;7.80;;;4.40;;
5199;SDS011;2619;47.868;11.892;2022-09-14T16:16:34;9.60;;;4.37;;
5199;SDS011;2619;47.868;11.892;2022-09-14T16:19:09;5.13;;;4.33;;
5199;SDS011;2619;47.868;11.892;2022-09-14T16:21:36;8.40;;;4.10;;
5199;SDS011;2619;47.868;11.892;2022-09-14T16:24:04;9.97;;;5.20;;
5199;SDS011;2619;47.868;11.892;2022-09-14T16:26:32;6.17;;;5.33;;
5199;SDS011;2619;47.868;11.892;2022-09-14T16:28:59;9.73;;;4.10;;
5199;SDS011;2619;47.868;11.892;2022-09-14T16:31:30;7.87;;;4.17;;
5199;SDS011;2619;47.868;11.892;2022-09-14T16:33:59;5.00;;;3.83;;
5199;SDS011;2619;47.868;11.892;2022-09-14T16:36:27;6.83;;;3.50;;
5199;SDS011;2619;47.868;11.892;2022-09-14T16:38:57;6.20;;;3.70;;
5199;SDS011;2619;47.868;11.892;2022-09-14T16:41:26;7.57;;;3.60;;
5199;SDS011;2619;47.868;11.892;2022-09-14T16:43:56;6.13;;;2.90;;
5199;SDS011;2619;47.868;11.892;2022-09-14T16:46:23;6.20;;;3.57;;
5199;SDS011;2619;47.868;11.892;2022-09-14T16:48:50;6.37;;;4.10;;
5199;SDS011;2619;47.868;11.892;2022-09-14T16:51:18;4.37;;;2.77;;
5199;SDS011;2619;47.868;11.892;2022-09-14T16:53:46;8.57;;;3.57;;
5199;SDS011;2619;47.868;11.892;2022-09-14T16:56:15;6.00;;;3.53;;
5199;SDS011;2619;47.868;11.892;2022-09-14T16:58:42;5.27;;;3.13;;
5199;SDS011;2619;47.868;11.892;2022-09-14T17:03:43;4.07;;;3.10;;
5199;SDS011;2619;47.868;11.892;2022-09-14T17:06:13;7.93;;;3.23;;
5199;SDS011;2619;47.868;11.892;2022-09-14T17:08:41;6.27;;;3.10;;
5199;SDS011;2619;47.868;11.892;2022-09-14T17:11:08;6.33;;;3.30;;
5199;SDS011;2619;47.868;11.892;2022-09-14T17:13:34;4.33;;;2.50;;
5199;SDS011;2619;47.868;11.892;2022-09-14T17:16:04;4.73;;;2.40;;
5199;SDS011;2619;47.868;11.892;2022-09-14T17:18:32;4.20;;;2.60;;
5199;SDS011;2619;47.868;11.892;2022-09-14T17:21:00;4.97;;;3.07;;
5199;SDS011;2619;47.868;11.892;2022-09-14T17:23:28;4.20;;;2.77;;
5199;SDS011;2619;47.868;11.892;2022-09-14T17:25:54;6.73;;;2.90;;